Time;durP1;ratioP1;P1;durP2;ratioP2;P2;SDS_P1;SDS_P2;PMS_P1;PMS_P2;Temp;Humidity;BMP_temperature;BMP_pressure;BME280_temperature;BME280_humidity;BME280_pressure;Samples;Min_cycle;Max_cycle;Signal;HPM_P1;HPM_P2
2020/12/14 00:01:35;;;;;;;;;;;;;;;20.09;42.06;100220.38;5097269;28;800;-51
2020/12/14 00:04:00;;;;;;;;;;;;;;;20.02;42.25;100219.97;5097363;28;775;-54
2020/12/14 00:06:26;;;;;;;;;;;;;;;19.51;43.30;100221.84;5096676;28;1016;-50
2020/12/14 00:08:51;;;;;;;;;;;;;;;19.40;43.54;100221.22;5097225;28;739;-50
2020/12/14 00:11:17;;;;;;;;;;;;;;;20.05;42.16;100227.63;5117319;28;1272;-54
2020/12/14 00:13:42;;;;;;;;;;;;;;;20.51;41.24;100237.59;5116983;28;806;-52
2020/12/14 00:16:08;;;;;;;;;;;;;;;20.24;41.66;100232.16;5117415;28;1976;-49
2020/12/14 00:18:34;;;;;;;;;;;;;;;20.12;41.88;100230.78;5117387;28;1039;-54
2020/12/14 00:20:59;;;;;;;;;;;;;;;19.43;43.56;100237.19;5113404;28;928;-52
2020/12/14 00:23:24;;;;;;;;;;;;;;;19.67;43.16;100236.16;5097002;28;720;-48
2020/12/14 00:25:50;;;;;;;;;;;;;;;20.46;41.26;100246.00;5096793;28;739;-51
2020/12/14 00:28:15;;;;;;;;;;;;;;;20.32;41.40;100248.00;5096735;28;720;-49
2020/12/14 00:30:41;;;;;;;;;;;;;;;20.21;41.93;100250.16;5096880;28;771;-47
2020/12/14 00:33:08;;;;;;;;;;;;;;;19.78;42.67;100248.59;5096960;28;760;-51
2020/12/14 00:35:33;;;;;;;;;;;;;;;19.18;44.17;100252.25;5096174;28;1981;-51
2020/12/14 00:37:58;;;;;;;;;;;;;;;20.03;42.44;100243.66;5096512;28;953;-47
2020/12/14 00:40:24;;;;;;;;;;;;;;;20.56;40.71;100252.41;5096553;28;759;-51
2020/12/14 00:42:49;;;;;;;;;;;;;;;20.10;42.07;100255.09;5096375;28;772;-51
2020/12/14 00:45:15;;;;;;;;;;;;;;;20.20;41.58;100253.25;5096697;28;786;-51
2020/12/14 00:47:40;;;;;;;;;;;;;;;19.52;43.39;100253.81;5115531;28;1205;-48
2020/12/14 00:50:05;;;;;;;;;;;;;;;19.53;43.41;100252.69;5116091;28;834;-51
2020/12/14 00:52:31;;;;;;;;;;;;;;;20.37;41.34;100245.13;5100971;28;1012;-53
2020/12/14 00:54:56;;;;;;;;;;;;;;;20.24;41.77;100244.03;5096369;28;1906;-51
2020/12/14 00:57:22;;;;;;;;;;;;;;;20.22;41.64;100237.19;5096244;28;822;-51
2020/12/14 00:59:47;;;;;;;;;;;;;;;19.93;42.36;100239.19;5096457;28;823;-53
2020/12/14 01:02:13;;;;;;;;;;;;;;;19.42;43.34;100246.56;5096308;28;775;-53
2020/12/14 01:04:38;;;;;;;;;;;;;;;19.99;42.45;100248.16;5096313;28;907;-52
2020/12/14 01:07:03;;;;;;;;;;;;;;;20.62;40.85;100248.38;5095724;28;1019;-52
2020/12/14 01:09:29;;;;;;;;;;;;;;;20.02;42.23;100243.97;5096214;28;846;-52
2020/12/14 01:11:54;;;;;;;;;;;;;;;20.11;42.07;100245.69;5096436;28;827;-53
2020/12/14 01:14:20;;;;;;;;;;;;;;;19.41;43.64;100255.94;5095753;28;1971;-54
2020/12/14 01:16:48;;;;;;;;;;;;;;;19.05;44.53;100247.53;5096260;28;759;-53
2020/12/14 01:19:14;;;;;;;;;;;;;;;20.02;42.42;100258.63;5096120;28;1197;-53
2020/12/14 01:21:39;;;;;;;;;;;;;;;20.47;41.12;100258.69;5095528;28;937;-54
2020/12/14 01:24:04;;;;;;;;;;;;;;;20.18;41.85;100257.13;5096380;28;859;-51
2020/12/14 01:26:31;;;;;;;;;;;;;;;20.13;41.77;100253.66;5096634;28;802;-53
2020/12/14 01:28:56;;;;;;;;;;;;;;;19.63;42.77;100248.91;5096016;28;759;-53
2020/12/14 01:31:23;;;;;;;;;;;;;;;19.51;43.27;100243.09;5096068;28;827;-53
2020/12/14 01:33:48;;;;;;;;;;;;;;;20.45;41.35;100232.50;5096139;28;782;-50
2020/12/14 01:36:14;;;;;;;;;;;;;;;20.33;41.47;100241.34;5095385;28;1905;-51
2020/12/14 01:38:39;;;;;;;;;;;;;;;20.22;41.77;100221.44;5096357;28;771;-54
2020/12/14 01:41:05;;;;;;;;;;;;;;;19.79;42.49;100228.16;5096487;28;767;-53
2020/12/14 01:43:30;;;;;;;;;;;;;;;19.18;43.83;100232.97;5095758;28;798;-53
2020/12/14 01:45:55;;;;;;;;;;;;;;;19.81;42.63;100230.63;5100632;28;1188;-54
2020/12/14 01:48:21;;;;;;;;;;;;;;;20.56;41.02;100224.78;5116292;28;795;-52
2020/12/14 01:50:47;;;;;;;;;;;;;;;20.20;41.47;100225.63;5112933;28;1015;-53
2020/12/14 01:53:12;;;;;;;;;;;;;;;20.04;42.01;100220.47;5095986;28;756;-51
2020/12/14 01:55:40;;;;;;;;;;;;;;;19.63;42.88;100213.06;5094514;28;1971;-50
2020/12/14 01:58:05;;;;;;;;;;;;;;;19.38;43.72;100212.44;5095510;28;811;-50
2020/12/14 02:00:30;;;;;;;;;;;;;;;20.34;41.40;100220.88;5095905;28;799;-52
2020/12/14 02:02:56;;;;;;;;;;;;;;;21.00;39.92;100225.91;5099498;28;749;-52
2020/12/14 02:05:21;;;;;;;;;;;;;;;20.94;40.06;100219.69;5099545;28;751;-53
2020/12/14 02:07:47;;;;;;;;;;;;;;;20.71;40.68;100213.38;5099331;28;960;-49
2020/12/14 02:10:12;;;;;;;;;;;;;;;20.43;41.17;100209.91;5099227;28;763;-53
2020/12/14 02:12:38;;;;;;;;;;;;;;;19.80;42.50;100206.94;5099489;28;783;-52
2020/12/14 02:15:03;;;;;;;;;;;;;;;19.69;42.76;100211.00;5099386;28;2057;-49
2020/12/14 02:17:29;;;;;;;;;;;;;;;19.50;43.36;100211.94;5099604;28;923;-50
2020/12/14 02:19:54;;;;;;;;;;;;;;;19.75;42.80;100213.34;5099031;28;1175;-50
2020/12/14 02:25:54;;;;;;;;;;;;;;;19.29;43.79;100219.78;5099002;28;633;-50
2020/12/14 02:28:20;;;;;;;;;;;;;;;19.42;43.58;100227.25;5098828;28;846;-51
2020/12/14 02:30:45;;;;;;;;;;;;;;;19.56;43.17;100220.91;5099035;28;775;-52
2020/12/14 02:33:11;;;;;;;;;;;;;;;19.71;42.87;100219.78;5099003;28;933;-50
2020/12/14 02:35:36;;;;;;;;;;;;;;;19.69;42.72;100217.34;5098653;28;1914;-51
2020/12/14 02:38:01;;;;;;;;;;;;;;;19.25;43.74;100216.00;5098600;28;965;-51
2020/12/14 02:40:27;;;;;;;;;;;;;;;19.36;43.80;100225.72;5098899;28;855;-49
2020/12/14 02:42:55;;;;;;;;;;;;;;;20.16;41.67;100220.75;5098593;28;751;-50
2020/12/14 02:45:21;;;;;;;;;;;;;;;20.43;40.90;100224.53;5099258;28;723;-52
2020/12/14 02:47:46;;;;;;;;;;;;;;;20.21;41.32;100219.00;5118749;28;1256;-51
2020/12/14 02:50:14;;;;;;;;;;;;;;;19.79;42.55;100214.38;5118833;28;731;-50
2020/12/14 02:52:39;;;;;;;;;;;;;;;19.38;43.51;100204.19;5101215;28;949;-50
2020/12/14 02:55:05;;;;;;;;;;;;;;;20.10;41.86;100204.59;5098578;28;1974;-47
2020/12/14 02:57:30;;;;;;;;;;;;;;;20.79;40.38;100200.75;5098332;28;739;-50
2020/12/14 02:59:56;;;;;;;;;;;;;;;20.10;41.50;100196.31;5098333;28;751;-49
2020/12/14 03:02:21;;;;;;;;;;;;;;;20.00;42.08;100205.66;5098608;28;854;-48
2020/12/14 03:04:50;;;;;;;;;;;;;;;19.64;42.68;100212.75;5098329;28;767;-48
2020/12/14 03:07:15;;;;;;;;;;;;;;;19.38;43.42;100217.97;5098093;28;972;-50
2020/12/14 03:09:40;;;;;;;;;;;;;;;19.42;43.69;100218.16;5098320;28;739;-51
2020/12/14 03:12:06;;;;;;;;;;;;;;;20.34;41.26;100221.72;5097876;28;811;-53
2020/12/14 03:14:31;;;;;;;;;;;;;;;20.55;40.95;100225.91;5097379;28;1977;-52
2020/12/14 03:16:57;;;;;;;;;;;;;;;20.18;41.62;100212.97;5098368;28;783;-50
2020/12/14 03:19:22;;;;;;;;;;;;;;;19.82;42.26;100219.31;5097536;28;1039;-49
2020/12/14 03:21:48;;;;;;;;;;;;;;;19.31;43.64;100223.06;5097825;28;996;-54
2020/12/14 03:24:13;;;;;;;;;;;;;;;19.96;42.34;100227.56;5098085;28;921;-48
2020/12/14 03:26:39;;;;;;;;;;;;;;;20.62;40.88;100243.69;5097478;28;755;-51
2020/12/14 03:29:04;;;;;;;;;;;;;;;20.13;41.89;100248.16;5098101;28;816;-54
2020/12/14 03:31:30;;;;;;;;;;;;;;;20.05;42.06;100252.47;5097990;28;858;-52
2020/12/14 03:33:56;;;;;;;;;;;;;;;19.70;42.84;100252.09;5097326;28;806;-52
2020/12/14 03:36:21;;;;;;;;;;;;;;;19.33;43.55;100248.38;5091367;28;1985;-50
2020/12/14 03:38:50;;;;;;;;;;;;;;;20.34;41.35;100265.88;5077501;28;759;-50
2020/12/14 03:41:16;;;;;;;;;;;;;;;20.48;40.86;100263.09;5076992;28;964;-50
2020/12/14 03:43:41;;;;;;;;;;;;;;;20.30;41.50;100269.56;5077477;28;767;-53
2020/12/14 03:46:12;;;;;;;;;;;;;;;19.97;42.13;100284.34;5089103;28;1114;-53
2020/12/14 03:48:38;;;;;;;;;;;;;;;19.49;42.96;100274.53;5117549;28;807;-50
2020/12/14 03:51:06;;;;;;;;;;;;;;;19.32;43.71;100282.56;5113924;28;1016;-48
2020/12/14 03:53:31;;;;;;;;;;;;;;;20.41;41.36;100276.50;5097376;28;759;-51
2020/12/14 03:55:56;;;;;;;;;;;;;;;20.39;41.25;100267.72;5097182;28;1976;-52
2020/12/14 03:58:22;;;;;;;;;;;;;;;20.04;42.08;100275.66;5096250;28;1315;-53
2020/12/14 04:00:47;;;;;;;;;;;;;;;19.78;42.58;100273.44;5097460;28;815;-51
2020/12/14 04:03:13;;;;;;;;;;;;;;;19.20;44.03;100271.25;5097233;28;831;-52
2020/12/14 04:05:38;;;;;;;;;;;;;;;19.99;42.07;100267.50;5097706;28;1012;-49
2020/12/14 04:08:04;;;;;;;;;;;;;;;20.69;40.43;100265.38;5096905;28;787;-49
2020/12/14 04:10:29;;;;;;;;;;;;;;;20.15;41.58;100268.00;5096828;28;874;-48
2020/12/14 04:12:55;;;;;;;;;;;;;;;20.20;41.56;100278.91;5097232;28;771;-55
2020/12/14 04:15:20;;;;;;;;;;;;;;;19.72;42.78;100279.34;5097171;28;1903;-47
2020/12/14 04:17:46;;;;;;;;;;;;;;;19.25;43.95;100290.44;5097028;28;874;-56
2020/12/14 04:20:11;;;;;;;;;;;;;;;19.56;43.24;100287.09;5096732;28;1233;-56
2020/12/14 04:22:36;;;;;;;;;;;;;;;20.46;41.22;100292.13;5096677;28;913;-57
2020/12/14 04:25:02;;;;;;;;;;;;;;;20.22;41.66;100295.19;5096534;28;815;-56
2020/12/14 04:27:28;;;;;;;;;;;;;;;20.14;41.65;100305.78;5100492;28;879;-57
2020/12/14 04:29:53;;;;;;;;;;;;;;;19.69;42.72;100308.34;5096473;28;827;-50
2020/12/14 04:32:19;;;;;;;;;;;;;;;19.37;43.56;100310.06;5096393;28;786;-52
2020/12/14 04:34:44;;;;;;;;;;;;;;;19.10;44.22;100317.16;5097136;28;1921;-52
2020/12/14 04:37:09;;;;;;;;;;;;;;;20.20;41.79;100325.81;5097124;28;1024;-52
2020/12/14 04:39:35;;;;;;;;;;;;;;;20.29;41.31;100323.19;5096238;28;807;-55
2020/12/14 04:42:00;;;;;;;;;;;;;;;19.99;42.18;100325.44;5096734;28;755;-53
2020/12/14 04:44:26;;;;;;;;;;;;;;;19.89;42.30;100320.16;5096628;28;779;-52
2020/12/14 04:46:51;;;;;;;;;;;;;;;19.36;43.54;100336.00;5106918;28;1111;-53
2020/12/14 04:49:17;;;;;;;;;;;;;;;20.16;41.83;100333.94;5115525;28;893;-56
2020/12/14 04:51:43;;;;;;;;;;;;;;;20.57;40.62;100328.63;5105534;28;1165;-53
2020/12/14 04:54:09;;;;;;;;;;;;;;;20.04;42.13;100336.38;5084522;28;763;-50
2020/12/14 04:56:38;;;;;;;;;;;;;;;20.00;41.93;100336.16;5084503;28;1902;-53
2020/12/14 04:59:03;;;;;;;;;;;;;;;19.58;42.89;100342.78;5090608;28;831;-51
2020/12/14 05:01:29;;;;;;;;;;;;;;;19.71;42.65;100346.66;5096140;28;799;-56
2020/12/14 05:03:54;;;;;;;;;;;;;;;19.83;42.46;100345.06;5096430;28;795;-56
2020/12/14 05:06:20;;;;;;;;;;;;;;;20.05;41.87;100343.53;5096067;28;989;-58
2020/12/14 05:08:45;;;;;;;;;;;;;;;20.06;41.87;100344.34;5096344;28;786;-55
2020/12/14 05:11:11;;;;;;;;;;;;;;;19.85;42.06;100343.94;5095921;28;874;-56
2020/12/14 05:13:36;;;;;;;;;;;;;;;19.98;42.04;100351.44;5094820;28;1152;-50
2020/12/14 05:16:02;;;;;;;;;;;;;;;19.93;42.01;100359.81;5087065;28;1964;-47
2020/12/14 05:18:27;;;;;;;;;;;;;;;20.69;40.45;100362.06;5075835;28;1055;-46
2020/12/14 05:20:56;;;;;;;;;;;;;;;20.74;40.19;100370.25;5078279;28;1009;-57
2020/12/14 05:23:22;;;;;;;;;;;;;;;20.36;41.14;100376.03;5096073;28;810;-53
2020/12/14 05:25:47;;;;;;;;;;;;;;;20.18;41.17;100369.50;5096179;28;785;-50
2020/12/14 05:28:14;;;;;;;;;;;;;;;19.83;42.12;100375.41;5096249;28;827;-52
2020/12/14 05:30:43;;;;;;;;;;;;;;;19.83;42.35;100377.38;5096236;28;799;-53
2020/12/14 05:33:08;;;;;;;;;;;;;;;20.70;40.44;100383.03;5095842;28;747;-55
2020/12/14 05:35:35;;;;;;;;;;;;;;;20.70;40.14;100377.50;5091136;28;1978;-51
2020/12/14 05:38:10;;;;;;;;;;;;;;;20.54;40.35;100392.75;5112066;28;1082;-47
2020/12/14 05:40:35;;;;;;;;;;;;;;;20.19;41.33;100382.19;5120366;28;1058;-48
2020/12/14 05:43:06;;;;;;;;;;;;;;;19.83;41.97;100385.66;5099581;28;799;-50
2020/12/14 05:45:31;;;;;;;;;;;;;;;19.94;41.86;100391.78;5100181;28;743;-47
2020/12/14 05:47:57;;;;;;;;;;;;;;;20.74;40.25;100395.09;5099943;28;872;-57
2020/12/14 05:50:22;;;;;;;;;;;;;;;20.64;40.44;100406.38;5099240;28;945;-49
2020/12/14 05:52:48;;;;;;;;;;;;;;;20.40;40.64;100412.09;5098762;28;1333;-51
2020/12/14 05:55:16;;;;;;;;;;;;;;;19.99;41.87;100405.47;5120192;28;1910;-61
2020/12/14 05:57:41;;;;;;;;;;;;;;;19.99;41.90;100398.03;5119808;28;767;-46
2020/12/14 06:00:07;;;;;;;;;;;;;;;20.80;39.99;100409.63;5118893;28;755;-47
2020/12/14 06:02:32;;;;;;;;;;;;;;;20.66;40.09;100409.63;5120170;28;879;-50
2020/12/14 06:04:58;;;;;;;;;;;;;;;20.66;40.19;100415.16;5116022;28;1016;-49
2020/12/14 06:07:27;;;;;;;;;;;;;;;20.29;41.17;100406.00;5099538;28;796;-51
2020/12/14 06:10:19;;;;;;;;;;;;;;;19.68;42.21;100411.53;5099557;28;783;-49
2020/12/14 06:12:47;;;;;;;;;;;;;;;20.44;41.02;100413.13;5096180;28;1121;-53
2020/12/14 06:15:13;;;;;;;;;;;;;;;20.78;39.93;100411.88;5099434;28;1905;-47
2020/12/14 06:17:39;;;;;;;;;;;;;;;20.47;40.78;100405.06;5099440;28;791;-60
2020/12/14 06:20:12;;;;;;;;;;;;;;;20.42;40.50;100405.16;5098442;28;1091;-45
2020/12/14 06:22:40;;;;;;;;;;;;;;;19.65;42.21;100412.97;5099863;28;1005;-50
2020/12/14 06:25:05;;;;;;;;;;;;;;;20.35;41.11;100413.03;5097940;28;828;-48
2020/12/14 06:27:31;;;;;;;;;;;;;;;21.11;39.25;100411.66;5097489;28;1001;-49
2020/12/14 06:29:56;;;;;;;;;;;;;;;20.81;39.85;100417.59;5105263;28;1189;-48
2020/12/14 06:32:35;;;;;;;;;;;;;;;20.64;40.30;100418.22;5120224;28;704;-45
2020/12/14 06:35:01;;;;;;;;;;;;;;;20.11;41.30;100411.31;5115333;28;1906;-51
2020/12/14 06:37:45;;;;;;;;;;;;;;;19.76;42.22;100399.81;5099369;28;822;-48
2020/12/14 06:40:10;;;;;;;;;;;;;;;20.83;39.83;100411.75;5099053;28;775;-47
2020/12/14 06:42:36;;;;;;;;;;;;;;;20.55;40.43;100413.75;5098793;28;779;-45
2020/12/14 06:45:05;;;;;;;;;;;;;;;20.60;40.19;100402.59;5099543;28;803;-45
2020/12/14 06:47:43;;;;;;;;;;;;;;;20.25;40.85;100391.97;5098811;28;815;-46
2020/12/14 06:50:22;;;;;;;;;;;;;;;19.70;42.26;100395.53;5098309;28;1012;-45
2020/12/14 06:52:47;;;;;;;;;;;;;;;20.64;40.45;100400.84;5098924;28;819;-52
2020/12/14 06:55:13;;;;;;;;;;;;;;;20.74;39.94;100405.34;5099130;28;1905;-49
2020/12/14 06:57:38;;;;;;;;;;;;;;;20.45;40.44;100399.00;5098607;28;740;-47
2020/12/14 07:00:04;;;;;;;;;;;;;;;20.10;41.16;100398.63;5098658;28;772;-59
2020/12/14 07:02:36;;;;;;;;;;;;;;;19.98;41.47;100392.81;5098863;28;736;-45
2020/12/14 07:05:02;;;;;;;;;;;;;;;19.89;41.83;100400.16;5098772;28;1084;-46
2020/12/14 07:07:31;;;;;;;;;;;;;;;20.80;39.76;100410.47;5098826;28;771;-46
2020/12/14 07:10:09;;;;;;;;;;;;;;;20.70;39.79;100412.63;5098988;28;763;-54
2020/12/14 07:12:40;;;;;;;;;;;;;;;20.45;40.41;100412.00;5098365;28;839;-45
2020/12/14 07:15:06;;;;;;;;;;;;;;;20.09;41.09;100408.06;5098380;28;1905;-57
2020/12/14 07:17:31;;;;;;;;;;;;;;;19.71;42.06;100412.88;5098543;28;747;-45
2020/12/14 07:19:57;;;;;;;;;;;;;;;20.07;41.39;100421.31;5097794;28;1185;-57
2020/12/14 07:22:41;;;;;;;;;;;;;;;20.83;39.88;100417.28;5098617;28;801;-58
2020/12/14 07:25:07;;;;;;;;;;;;;;;20.62;40.15;100417.72;5098544;28;787;-45
2020/12/14 07:27:32;;;;;;;;;;;;;;;20.62;40.27;100422.41;5098113;28;782;-52
2020/12/14 07:30:04;;;;;;;;;;;;;;;20.15;40.95;100434.41;5104293;28;1153;-57
2020/12/14 07:32:30;;;;;;;;;;;;;;;19.87;41.92;100438.28;5117597;28;893;-46
2020/12/14 07:34:55;;;;;;;;;;;;;;;20.84;39.54;100430.78;5114689;28;1977;-60
2020/12/14 07:37:21;;;;;;;;;;;;;;;20.69;39.81;100431.13;5098199;28;894;-47
2020/12/14 07:39:47;;;;;;;;;;;;;;;20.50;40.53;100429.28;5098346;28;823;-46
2020/12/14 07:42:21;;;;;;;;;;;;;;;20.27;40.70;100433.09;5097764;28;902;-48
2020/12/14 07:44:46;;;;;;;;;;;;;;;19.80;42.04;100428.44;5098029;28;811;-46
2020/12/14 07:47:18;;;;;;;;;;;;;;;20.47;40.62;100429.91;5098001;28;871;-45
2020/12/14 07:49:44;;;;;;;;;;;;;;;20.58;39.94;100446.25;5097135;28;957;-45
2020/12/14 07:52:09;;;;;;;;;;;;;;;20.58;40.21;100441.56;5097854;28;834;-50
2020/12/14 07:54:34;;;;;;;;;;;;;;;20.46;40.63;100458.66;5097652;28;1969;-44
2020/12/14 07:57:02;;;;;;;;;;;;;;;20.00;41.51;100456.78;5097391;28;803;-44
2020/12/14 07:59:29;;;;;;;;;;;;;;;20.35;40.65;100466.31;5097416;28;830;-53
2020/12/14 08:01:54;;;;;;;;;;;;;;;21.08;39.26;100465.63;5097540;28;783;-52
2020/12/14 08:04:29;;;;;;;;;;;;;;;20.64;40.04;100472.66;5097133;28;875;-47
2020/12/14 08:06:58;;;;;;;;;;;;;;;20.63;40.15;100462.72;5097209;28;996;-47
2020/12/14 08:09:24;;;;;;;;;;;;;;;20.28;40.86;100470.63;5097503;28;821;-59
2020/12/14 08:11:50;;;;;;;;;;;;;;;19.96;41.33;100477.84;5095642;28;937;-45
2020/12/14 08:14:16;;;;;;;;;;;;;;;20.55;40.30;100477.25;5097511;28;850;-47
2020/12/14 08:16:42;;;;;;;;;;;;;;;20.93;39.39;100468.75;5097140;28;1910;-57
2020/12/14 08:19:13;;;;;;;;;;;;;;;20.39;40.70;100472.06;5096955;28;1221;-53
2020/12/14 08:21:40;;;;;;;;;;;;;;;20.32;40.61;100466.13;5096428;28;969;-45
2020/12/14 08:24:08;;;;;;;;;;;;;;;19.84;41.63;100467.31;5097604;28;897;-52
2020/12/14 08:26:33;;;;;;;;;;;;;;;20.22;40.92;100467.16;5096980;28;759;-47
2020/12/14 08:28:59;;;;;;;;;;;;;;;21.00;39.31;100463.63;5097431;28;755;-45
2020/12/14 08:31:25;;;;;;;;;;;;;;;20.65;39.83;100457.69;5115058;28;1085;-48
2020/12/14 08:33:54;;;;;;;;;;;;;;;20.54;40.37;100462.66;5117207;28;851;-46
2020/12/14 08:36:20;;;;;;;;;;;;;;;20.16;41.16;100455.38;5102446;28;1979;-47
2020/12/14 08:38:45;;;;;;;;;;;;;;;19.80;41.63;100461.56;5097070;28;791;-44
2020/12/14 08:41:11;;;;;;;;;;;;;;;19.86;41.78;100450.44;5097046;28;827;-47
2020/12/14 08:43:37;;;;;;;;;;;;;;;19.84;41.58;100453.50;5096935;28;546;-47
2020/12/14 08:46:13;;;;;;;;;;;;;;;19.89;41.61;100452.59;5097174;28;752;-50
2020/12/14 08:48:45;;;;;;;;;;;;;;;19.96;41.53;100455.75;5096658;28;838;-56
2020/12/14 08:51:12;;;;;;;;;;;;;;;19.63;42.08;100455.78;5096529;28;946;-58
2020/12/14 08:53:38;;;;;;;;;;;;;;;20.47;40.51;100438.19;5096826;28;934;-51
2020/12/14 08:56:05;;;;;;;;;;;;;;;20.76;39.62;100452.81;5096376;28;1957;-46
2020/12/14 08:58:30;;;;;;;;;;;;;;;20.35;40.40;100460.00;5096762;28;764;-46
2020/12/14 09:00:55;;;;;;;;;;;;;;;20.33;40.42;100445.69;5096772;28;743;-47
2020/12/14 09:03:21;;;;;;;;;;;;;;;20.08;40.98;100461.63;5096348;28;775;-48
2020/12/14 09:05:46;;;;;;;;;;;;;;;20.12;41.00;100448.84;5096291;28;1012;-45
2020/12/14 09:08:12;;;;;;;;;;;;;;;20.94;39.33;100459.34;5096957;28;804;-54
2020/12/14 09:10:37;;;;;;;;;;;;;;;20.60;39.89;100446.78;5095632;28;873;-45
2020/12/14 09:13:05;;;;;;;;;;;;;;;20.41;40.24;100452.41;5096546;28;811;-48
2020/12/14 09:15:31;;;;;;;;;;;;;;;20.27;40.64;100447.72;5096529;28;1918;-49
2020/12/14 09:18:00;;;;;;;;;;;;;;;19.94;41.52;100445.03;5096209;28;863;-48
2020/12/14 09:20:26;;;;;;;;;;;;;;;20.87;39.57;100448.69;5096130;28;1143;-58
2020/12/14 09:22:51;;;;;;;;;;;;;;;20.64;39.73;100445.03;5096527;28;767;-51
2020/12/14 09:25:17;;;;;;;;;;;;;;;20.48;40.40;100450.88;5096038;28;739;-44
2020/12/14 09:27:42;;;;;;;;;;;;;;;20.15;40.71;100450.97;5096577;28;823;-50
2020/12/14 09:30:07;;;;;;;;;;;;;;;19.76;41.82;100452.22;5095318;28;1513;-48
2020/12/14 09:32:34;;;;;;;;;;;;;;;20.65;39.84;100441.13;5080707;28;796;-49
2020/12/14 09:35:00;;;;;;;;;;;;;;;21.23;38.61;100452.59;5079375;28;1914;-47
2020/12/14 09:37:25;;;;;;;;;;;;;;;21.40;38.30;100458.25;5096597;28;732;-48
2020/12/14 09:39:50;;;;;;;;;;;;;;;21.09;39.05;100450.69;5095927;28;736;-47
2020/12/14 09:42:16;;;;;;;;;;;;;;;20.71;39.54;100461.25;5096381;28;816;-46
2020/12/14 09:44:41;;;;;;;;;;;;;;;20.43;40.31;100462.03;5096180;28;827;-49
2020/12/14 09:47:09;;;;;;;;;;;;;;;20.15;40.69;100456.50;5096417;28;819;-45
2020/12/14 09:49:35;;;;;;;;;;;;;;;19.98;41.40;100462.63;5096127;28;1004;-45
2020/12/14 09:52:00;;;;;;;;;;;;;;;19.89;41.38;100469.16;5095935;28;795;-45
2020/12/14 09:54:25;;;;;;;;;;;;;;;19.86;41.77;100469.75;5095830;28;1984;-46
2020/12/14 09:56:51;;;;;;;;;;;;;;;19.79;41.68;100472.88;5096216;28;795;-46
2020/12/14 09:59:16;;;;;;;;;;;;;;;19.85;41.46;100470.88;5096394;28;818;-44
2020/12/14 10:01:42;;;;;;;;;;;;;;;19.98;41.14;100472.84;5095942;28;744;-44
2020/12/14 10:04:07;;;;;;;;;;;;;;;20.05;41.11;100472.44;5096063;28;723;-44
2020/12/14 10:06:33;;;;;;;;;;;;;;;20.14;40.76;100474.19;5095801;28;965;-52
2020/12/14 10:08:58;;;;;;;;;;;;;;;20.12;40.90;100462.63;5095827;28;810;-47
2020/12/14 10:11:24;;;;;;;;;;;;;;;20.14;40.64;100465.09;5096054;28;843;-49
2020/12/14 10:13:50;;;;;;;;;;;;;;;20.18;40.60;100461.41;5096023;28;848;-50
2020/12/14 10:16:15;;;;;;;;;;;;;;;19.82;41.36;100442.78;5095692;28;1913;-50
2020/12/14 10:18:40;;;;;;;;;;;;;;;19.71;41.74;100433.00;5095868;28;1138;-50
2020/12/14 10:21:09;;;;;;;;;;;;;;;20.25;40.69;100416.03;5095865;28;1005;-46
2020/12/14 10:23:34;;;;;;;;;;;;;;;20.79;39.39;100414.34;5098272;28;672;-48
2020/12/14 10:26:00;;;;;;;;;;;;;;;20.52;39.97;100410.47;5099950;28;751;-49
2020/12/14 10:28:25;;;;;;;;;;;;;;;20.31;40.54;100407.34;5099642;28;793;-48
2020/12/14 10:30:50;;;;;;;;;;;;;;;20.08;40.85;100422.16;5112568;28;1093;-49
2020/12/14 10:33:16;;;;;;;;;;;;;;;19.85;41.41;100422.00;5119638;28;823;-44
2020/12/14 10:35:43;;;;;;;;;;;;;;;20.77;39.47;100422.09;5109885;28;1961;-53
2020/12/14 10:38:09;;;;;;;;;;;;;;;20.62;39.76;100419.66;5099311;28;791;-52
2020/12/14 10:40:34;;;;;;;;;;;;;;;20.38;40.42;100419.91;5099561;28;803;-46
2020/12/14 10:43:00;;;;;;;;;;;;;;;20.16;40.56;100425.03;5099880;28;830;-45
2020/12/14 10:45:25;;;;;;;;;;;;;;;19.89;41.16;100413.97;5099035;28;723;-44
2020/12/14 10:47:51;;;;;;;;;;;;;;;19.96;41.18;100428.16;5098854;28;779;-45
2020/12/14 10:50:16;;;;;;;;;;;;;;;20.75;39.44;100423.53;5098835;28;1008;-45
2020/12/14 10:52:42;;;;;;;;;;;;;;;20.71;39.65;100417.84;5088238;28;1316;-58
2020/12/14 10:55:07;;;;;;;;;;;;;;;20.35;40.21;100433.19;5098611;28;1902;-46
2020/12/14 10:57:33;;;;;;;;;;;;;;;20.30;40.31;100436.06;5092144;28;814;-47
2020/12/14 11:00:06;;;;;;;;;;;;;;;19.81;41.65;100427.34;5078572;28;795;-53
2020/12/14 11:02:35;;;;;;;;;;;;;;;20.10;41.13;100430.94;5078178;28;779;-50
2020/12/14 11:05:01;;;;;;;;;;;;;;;20.93;39.12;100424.53;5087479;28;953;-50
2020/12/14 11:07:26;;;;;;;;;;;;;;;20.51;39.91;100419.88;5098536;28;838;-44
2020/12/14 11:09:51;;;;;;;;;;;;;;;20.39;40.23;100433.41;5098485;28;798;-45
2020/12/14 11:12:17;;;;;;;;;;;;;;;20.03;40.95;100436.84;5099073;28;823;-45
2020/12/14 11:14:42;;;;;;;;;;;;;;;19.82;41.59;100423.47;5098334;28;1966;-46
2020/12/14 11:17:09;;;;;;;;;;;;;;;20.71;39.76;100434.41;5098293;28;847;-46
2020/12/14 11:19:34;;;;;;;;;;;;;;;20.62;39.72;100419.66;5098736;28;1019;-48
2020/12/14 11:22:00;;;;;;;;;;;;;;;20.62;39.95;100442.59;5098180;28;739;-45
2020/12/14 11:24:25;;;;;;;;;;;;;;;20.38;40.26;100453.84;5098177;28;744;-48
2020/12/14 11:26:51;;;;;;;;;;;;;;;19.92;41.28;100440.94;5099041;28;802;-54
2020/12/14 11:29:16;;;;;;;;;;;;;;;20.63;39.82;100457.22;5097122;28;1093;-47
2020/12/14 11:31:42;;;;;;;;;;;;;;;20.94;39.03;100453.81;5118494;28;1193;-49
2020/12/14 11:34:07;;;;;;;;;;;;;;;20.45;39.99;100445.97;5118029;28;811;-49
2020/12/14 11:36:33;;;;;;;;;;;;;;;20.31;40.48;100454.28;5101559;28;1984;-47
2020/12/14 11:38:58;;;;;;;;;;;;;;;19.95;41.18;100462.41;5098085;28;731;-49
2020/12/14 11:41:24;;;;;;;;;;;;;;;19.95;41.13;100479.78;5098409;28;874;-62
2020/12/14 11:43:49;;;;;;;;;;;;;;;20.52;40.20;100473.16;5097943;28;723;-58
2020/12/14 11:46:15;;;;;;;;;;;;;;;20.85;39.11;100467.53;5097676;28;759;-58
2020/12/14 11:48:40;;;;;;;;;;;;;;;20.48;40.29;100474.91;5097878;28;827;-50
2020/12/14 11:51:06;;;;;;;;;;;;;;;20.61;39.74;100478.81;5097605;28;1146;-62
2020/12/14 11:53:31;;;;;;;;;;;;;;;19.87;41.26;100474.16;5097605;28;759;-53
2020/12/14 11:55:56;;;;;;;;;;;;;;;20.52;40.11;100473.16;5097734;28;1980;-64
2020/12/14 11:58:22;;;;;;;;;;;;;;;21.00;39.23;100477.47;5097731;28;751;-50
2020/12/14 12:00:47;;;;;;;;;;;;;;;20.61;39.86;100478.81;5098012;28;794;-53
2020/12/14 12:03:13;;;;;;;;;;;;;;;20.58;40.04;100476.66;5097594;28;774;-48
2020/12/14 12:05:38;;;;;;;;;;;;;;;20.17;40.81;100476.34;5097271;28;1028;-56
2020/12/14 12:08:03;;;;;;;;;;;;;;;20.24;40.65;100486.97;5097617;28;771;-47
2020/12/14 12:10:29;;;;;;;;;;;;;;;20.97;39.05;100480.81;5097376;28;802;-47
2020/12/14 12:12:54;;;;;;;;;;;;;;;20.64;39.84;100483.72;5097606;28;830;-49
2020/12/14 12:15:20;;;;;;;;;;;;;;;20.54;39.85;100470.94;5097088;28;1972;-51
2020/12/14 12:17:45;;;;;;;;;;;;;;;20.34;40.42;100483.19;5094651;28;1438;-48
2020/12/14 12:20:11;;;;;;;;;;;;;;;19.64;41.97;100482.22;5090961;28;1063;-46
2020/12/14 12:22:36;;;;;;;;;;;;;;;20.49;40.04;100469.06;5085576;28;777;-51
2020/12/14 12:25:02;;;;;;;;;;;;;;;20.93;39.13;100477.03;5097054;28;799;-55
2020/12/14 12:27:28;;;;;;;;;;;;;;;20.61;39.95;100473.28;5097409;28;754;-51
2020/12/14 12:29:53;;;;;;;;;;;;;;;20.54;39.77;100481.16;5101665;28;1145;-54
2020/12/14 12:32:19;;;;;;;;;;;;;;;20.08;40.96;100488.41;5118009;28;778;-56
2020/12/14 12:34:45;;;;;;;;;;;;;;;19.75;41.97;100489.19;5115781;28;1918;-49
2020/12/14 12:37:11;;;;;;;;;;;;;;;20.65;39.91;100493.63;5096835;28;799;-50
2020/12/14 12:39:37;;;;;;;;;;;;;;;20.84;39.37;100483.28;5097342;28;759;-48
2020/12/14 12:42:02;;;;;;;;;;;;;;;20.69;39.56;100489.16;5096944;28;771;-49
2020/12/14 12:44:28;;;;;;;;;;;;;;;20.39;40.37;100488.63;5096477;28;767;-50
2020/12/14 12:46:53;;;;;;;;;;;;;;;19.95;41.06;100495.50;5096067;28;859;-47
2020/12/14 12:49:19;;;;;;;;;;;;;;;19.81;41.69;100489.97;5096935;28;810;-57
2020/12/14 12:51:47;;;;;;;;;;;;;;;20.84;39.56;100493.53;5096236;28;993;-48